Terminal Aerodrome Forecast
Issued by NWS

Home | Current Version | Previous Version | Text Only | Print | Product List | Glossary On
Versions: 1 2 3 4 5 6 7 8 9 10 11 12 13 14 15 16 17 18
000
FTUS41 KCAR 301123
TAFPQI
TAF
KPQI 301123Z 3012/3112 14009KT 5SM -SN BKN012 OVC025
     FM301500 14006KT 1 1/2SM -SN OVC025
     FM301800 14007KT 1SM -SN BR OVC007
     FM310200 02012KT 1/2SM SN FG VV003
     FM310700 36017G25KT 1/4SM SN BLSN VV002
      AMD LTD TO CLD VIS AND WIND=

USA.gov is the U.S. government's official web portal to all federal, state and local government web resources and services.